Airfield :
LOGIN :

Register | Disclaimer

   EN    FR    IT 

 










Legend :    VFR   Marginal VFR   IFR   Intensive IFR   Very Intensive IFR
Visi :
Ceiling :
>= 8 km
>= 3000ft
5 to 8 km
1000 to 3000 ft
1500m to 5 km
500 to 1000 ft
800 to 1500m
200 to 500 ft
< 800m
< 200 ft
Symbols :   Thunderstorms  Fog  Heavy snow  Heavy precipitations  Wind > 20 kt
SIGMETs :     Misc.  Thunderstorms  Icing  Turbulence  Mountain Waves  Volcanic Ashes







- Airport Elevation : 300 ft
- IATA code : MLA


LMML - Malta Luqa

CURRENT METAR :
  • 220845Z 25008KT 9999 FEW025 28/19 Q1018 NOSIG

EXPIRED METARs :
  • 220815Z 26007KT 9999 FEW023 28/19 Q1018 NOSIG
  • 220745Z 28006KT 9999 FEW023 27/20 Q1018 NOSIG
  • 220645Z 30003KT 270V350 9999 FEW020 26/21 Q1017 NOSIG
  • 220615Z 29003KT 9999 FEW020TCU 25/21 Q1017 NOSIG
  • 220545Z 27003KT 9999 FEW020TCU 23/20 Q1017 NOSIG

TAF TAF LMML
Valid from the 22 at 06:00 until the 23 at 06:00 UTC


220500Z 2206/2306 24007KT 9999 SCT022
TEMPO 2206/2218 8000 SHRA BKN020TCU
PROB30
TEMPO 2206/2217 VRB15G25KT 5000 TSRA BKN018CB
PROB30 2300/2306 9000 BKN013
No reported NOTAMs for that airfield.
1 SIGMET reported for the Malta FIR (LMMM) :
 
Frequent thunderstorms
LMMM SIGMET 2 VALID 220620/221020 LMML
LMMM MALTA FIR FRQ TS OBS BTN E OF E014 AND E017 CB TOPS FL240 MOV S WKN=



MET'MAP, your aeronautical weather chart ! - Copyright ORBIFLY December 2007 - Disclaimer

ORBIFLY MET'MAP TEAM :

Programming & Development : Alexandra Zaïnal
Concept & Development : Baudouin d'Aumeries
Co-Development & Prog : Marc-Olivier Méhu
Technical & hardware support : Manuel Goepfert

Contact : metmap@orbifly.com




SOURCES & CREDITS :

   NOAA